Main page
METAR-TAF:

Airports :

Maputo, Mozambique

Maputo International Airport

latitude: 25-55S, longitude: 032-34E, elevation: 39 m

Current weather observation

The report was made 41 minutes ago, at 09:00 UTC
Wind 14 kt from the South
Temperature 24°C
Humidity 54%
Pressure 1021 hPa
Visibility 10 km or more
Few clouds at a height of 2000 ft

METAR: FQMA 280900Z 18014KT 9999 FEW020 24/14 Q1021 NOSIG

Time: 11:41 (09:41 UTC)

Forecast

The report was made 5 hours and 41 minutes ago, at 04:00 UTC
Forecast valid from 28 at 06 UTC to 29 at 12 UTC
Wind 8 kt from the Southwest
Visibility 10 km or more
no clouds below 1500 m and no cumulonimbus
Becoming
from 28 at 12 UTC to 28 at 14 UTC
Wind 12 kt from the South/Southeast
Visibility 10 km or more
Scattered clouds at a height of 2000 ft
Becoming
from 28 at 18 UTC to 28 at 20 UTC
Wind 8 kt from the South/Southwest

TAF: FQMA 280400Z 2806/2912 22008KT CAVOK BECMG 2812/2814 15012KT 9999 SCT020 BECMG 2818/2820 21008KT TX27/2812ZTN12/2903Z

METAR-TAF

Weather observations and forecasts of more than 4000 airports (METAR and TAF reports).

The available stations are represented by yellow and red dots on the map.

Hover mouse over dot to see the name of the station.

Then click to see weather observations and forecasts.

To change the map : click on the green buttons with a black cross to zoom in, on the green button with a dash to zoom out, or on the green arrows for adjacent maps.


METAR-TAF: